createdAt,value
2022-12-17T00:05:02.888Z,76918.44
2022-12-17T00:15:28.208Z,76944.75
2022-12-17T00:25:49.076Z,76958.91
2022-12-17T00:36:13.842Z,76981.19
2022-12-17T00:46:34.585Z,76983.22
2022-12-17T00:56:57.832Z,76981.19
2022-12-17T01:07:23.687Z,76981.19
2022-12-17T01:17:44.142Z,76987.25
2022-12-17T01:28:09.147Z,76983.22
2022-12-17T01:38:34.675Z,76985.25
2022-12-17T01:49:02.365Z,76989.28
2022-12-17T01:59:28.266Z,77011.56
2022-12-17T02:09:57.608Z,77025.72
2022-12-17T02:20:51.617Z,77025.72
2022-12-17T02:31:16.321Z,76944.75
2022-12-17T02:41:41.812Z,76989.28
2022-12-17T02:52:03.384Z,77013.56
2022-12-17T03:02:26.790Z,77037.88
2022-12-17T03:12:47.720Z,77041.91
2022-12-17T03:23:08.413Z,77054.06
2022-12-17T03:33:32.718Z,77058.13
2022-12-17T03:43:55.225Z,77066.22
2022-12-17T03:54:15.870Z,77060.13
2022-12-17T04:04:37.538Z,77076.34
2022-12-17T04:14:58.396Z,77080.38
2022-12-17T04:25:23.959Z,77108.72
2022-12-17T04:35:47.785Z,77139.09
2022-12-17T04:46:11.088Z,77147.19
2022-12-17T04:56:31.778Z,77171.50
2022-12-17T05:06:52.331Z,77185.66
2022-12-17T05:17:12.997Z,77197.81
2022-12-17T05:27:34.897Z,77177.56
2022-12-17T05:37:58.475Z,77199.84
2022-12-17T05:48:24.710Z,77187.69
2022-12-17T05:58:48.586Z,77203.88
2022-12-17T06:09:11.899Z,77207.94
2022-12-17T06:19:33.436Z,77226.16
2022-12-17T06:29:59.258Z,77256.53
2022-12-17T06:40:24.352Z,77288.91
2022-12-17T06:50:47.765Z,77264.63
2022-12-17T07:01:11.240Z,77280.81
2022-12-17T07:11:35.446Z,77270.69
2022-12-17T07:22:04.467Z,77280.81
2022-12-17T07:32:25.487Z,77297.00
2022-12-17T07:42:49.066Z,77311.19
2022-12-17T07:53:23.153Z,77345.59
2022-12-17T08:03:44.933Z,77333.44
2022-12-17T08:14:11.477Z,77331.44
2022-12-17T08:24:32.260Z,77355.72
2022-12-17T08:34:55.403Z,77355.72
2022-12-17T08:45:18.457Z,77359.78
2022-12-17T08:55:44.121Z,77373.94
2022-12-17T09:06:07.886Z,77375.97
2022-12-17T09:16:33.354Z,77363.81
2022-12-17T09:26:56.117Z,77398.25
2022-12-17T09:37:24.636Z,77450.88
2022-12-17T09:47:54.749Z,77448.84
2022-12-17T09:58:17.795Z,77440.75
2022-12-17T10:08:39.914Z,77446.84
2022-12-17T10:19:09.818Z,77432.66
2022-12-17T10:29:30.488Z,77465.06
2022-12-17T10:39:51.302Z,77503.53
2022-12-17T10:50:21.168Z,77477.22
2022-12-17T11:00:50.725Z,77471.13
2022-12-17T11:11:12.283Z,77491.38
2022-12-17T11:21:42.366Z,77511.63
2022-12-17T11:32:20.760Z,77481.25
2022-12-17T11:42:58.190Z,77503.53
2022-12-17T11:53:30.063Z,77539.97
2022-12-17T12:03:55.136Z,77560.22
2022-12-17T12:14:23.945Z,77544.03
2022-12-17T12:24:54.620Z,77499.47
2022-12-17T12:35:16.721Z,77511.63
2022-12-17T12:46:16.975Z,77527.81
2022-12-17T12:56:55.092Z,77539.97
2022-12-17T13:07:04.354Z,77544.03
2022-12-17T13:17:16.171Z,77572.38
2022-12-17T13:27:31.401Z,77560.22
2022-12-17T13:38:00.415Z,77592.63
2022-12-17T13:48:03.070Z,77596.66
2022-12-17T13:58:05.325Z,77596.66
2022-12-17T14:08:07.685Z,77616.91
2022-12-17T14:18:13.405Z,77645.25
2022-12-17T14:28:37.354Z,77649.31
2022-12-17T14:38:40.711Z,77703.97
2022-12-17T14:49:00.940Z,77708.03
2022-12-17T14:59:03.242Z,77724.22
2022-12-17T15:09:05.259Z,77754.59
2022-12-17T15:19:09.431Z,77780.91
2022-12-17T15:29:12.834Z,77803.19
2022-12-17T15:39:15.527Z,77831.53
2022-12-17T15:49:19.820Z,77817.38
2022-12-17T15:59:22.673Z,77845.72
2022-12-17T16:09:27.112Z,77835.59
2022-12-17T16:19:29.277Z,77855.84
2022-12-17T16:29:31.480Z,77884.19
2022-12-17T16:39:39.095Z,77892.28
2022-12-17T16:49:43.996Z,77928.72
2022-12-17T16:59:48.388Z,77920.63
2022-12-17T17:09:50.798Z,77948.97
2022-12-17T17:19:55.957Z,77957.09
2022-12-17T17:30:03.263Z,77991.50
2022-12-17T17:40:08.914Z,78005.69
2022-12-17T17:50:14.250Z,78032.00
2022-12-17T18:00:19.729Z,77948.97
2022-12-17T18:10:21.956Z,77987.47
2022-12-17T18:20:24.022Z,78013.78
2022-12-17T18:30:28.314Z,78054.28
2022-12-17T18:40:33.432Z,78066.44
2022-12-17T18:50:35.832Z,78046.19
2022-12-17T19:00:42.811Z,78046.19
2022-12-17T19:10:44.958Z,78040.09
2022-12-17T19:20:57.463Z,78038.09
2022-12-17T19:30:59.539Z,78038.09
2022-12-17T19:41:15.185Z,78036.06
2022-12-17T19:51:22.516Z,78023.91
2022-12-17T20:01:31.931Z,78034.03
2022-12-17T20:11:35.735Z,78015.81
2022-12-17T20:21:38.938Z,77999.59
2022-12-17T20:31:48.042Z,78017.84
2022-12-17T20:41:51.815Z,78005.69
2022-12-17T20:51:53.917Z,78038.09
2022-12-17T21:01:58.355Z,78023.91
2022-12-17T21:12:03.648Z,78046.19
2022-12-17T21:22:10.358Z,78078.59
2022-12-17T21:32:15.731Z,78070.47
2022-12-17T21:42:41.377Z,78058.34
2022-12-17T21:52:44.809Z,78086.69
2022-12-17T22:02:48.708Z,78082.63
2022-12-17T22:13:12.122Z,78104.91
2022-12-17T22:23:16.771Z,78106.94
2022-12-17T22:33:47.974Z,78102.88
2022-12-17T22:44:41.439Z,78133.25
2022-12-17T22:54:07.542Z,78117.06
2022-12-17T23:04:16.404Z,78125.16
2022-12-17T23:14:20.915Z,78108.97
2022-12-17T23:24:23.039Z,78104.91
2022-12-17T23:34:25.284Z,78102.88
2022-12-17T23:44:28.182Z,78143.38
2022-12-17T23:54:30.397Z,78139.34
